Flight Track Log - Related Links

Times and Time Zones

All times are in EDT time to prevent confusion due to time zone crossing. See the ACA831 flight status page for this flight to view local times or setup timezone preferences in your user account.

Time Position Orientation Groundspeed Altitude Reporting Facility
EDT Latitude Longitude Course Direction KTS MPH feet Rate Location/Type
Sun 04:15:12 PM 45.4520 -73.7490 90° East 174 200 1,000  Level FlightAware ADS-B
Sun 04:15:42 PM 45.4330 -73.7730 222° Southwest 188 216 2,400 2,509 Climbing FlightAware ADS-B
Sun 04:16:07 PM 45.4150 -73.7970 223° Southwest 228 262 3,300 2,400 Climbing FlightAware ADS-B
Sun 04:16:22 PM 45.4070 -73.8100 229° Southwest 240 276 4,000 3,000 Climbing FlightAware ADS-B
Sun 04:16:37 PM 45.3990 -73.8370 247° West 258 297 4,800 3,400 Climbing FlightAware ADS-B
Sun 04:16:52 PM 45.3940 -73.8630 255° West 265 305 5,700 2,550 Climbing FlightAware ADS-B
Sun 04:17:17 PM 45.3870 -73.9050 257° West 267 307 6,500 1,091 Climbing FlightAware ADS-B
Sun 04:17:47 PM 45.3780 -73.9570 256° West 269 310 6,700 450 Climbing FlightAware ADS-B
Sun 04:17:57 PM 45.3770 -73.9730 265° West 272 313 6,800 150 Climbing FlightAware ADS-B
Sun 04:18:27 PM 45.3920 -74.0240 293° West 275 316 6,800 1,100 Level FlightAware ADS-B
Sun 04:18:57 PM 45.4090 -74.0710 297° West 268 308 7,900 2,836 Climbing FlightAware ADS-B
Sun 04:19:22 PM 45.4230 -74.1120 296° West 277 319 9,400 3,164 Climbing FlightAware ADS-B
Sun 04:19:52 PM 45.4320 -74.1650 284° West 298 343 10,800 2,229 Climbing FlightAware ADS-B
Sun 04:20:32 PM 45.4270 -74.2530 265° West 353 406 12,000 2,753 Climbing FlightAware ADS-B
Sun 04:21:17 PM 45.4210 -74.3560 265° West 366 421 14,700 3,388 Climbing FlightAware ADS-B
Sun 04:21:57 PM 45.4120 -74.4570 263° West 379 436 16,800 2,965 Climbing FlightAware ADS-B
Sun 04:22:42 PM 45.3940 -74.5680 257° West 394 453 18,900 2,824 Climbing FlightAware ADS-B
Sun 04:23:22 PM 45.3760 -74.6690 256° West 406 467 20,800 2,682 Climbing FlightAware ADS-B
Sun 04:24:07 PM 45.3560 -74.7900 257° West 417 480 22,700 2,467 Climbing FlightAware ADS-B
Sun 04:24:52 PM 45.3360 -74.9080 256° West 426 490 24,500 2,329 Climbing FlightAware ADS-B
Sun 04:25:32 PM 45.3170 -75.0180 256° West 433 498 26,000 2,025 Climbing FlightAware ADS-B
Sun 04:26:12 PM 45.2980 -75.1300 256° West 444 511 27,200 1,976 Climbing FlightAware ADS-B
Sun 04:26:57 PM 45.2740 -75.2630 256° West 450 518 28,800 2,870 Climbing FlightAware ADS-B
Sun 04:28:07 PM 45.2430 -75.4450 256° West 410 472 32,700 2,836 Climbing FlightAware ADS-B
Sun 04:28:47 PM 45.2240 -75.5510 256° West 405 466 34,000 975 Climbing FlightAware ADS-B
Sun 04:29:27 PM 45.2050 -75.6540 255° West 409 471 34,000  Level FlightAware ADS-B
Sun 04:30:12 PM 45.1840 -75.7730 256° West 403 464 34,000 -141 Level FlightAware ADS-B
Sun 04:30:52 PM 45.1650 -75.8790 256° West 405 466 33,800 -1,050 Descending FlightAware ADS-B
Sun 04:31:32 PM 45.1470 -75.9780 256° West 396 456 32,600 -2,100 Descending FlightAware ADS-B
Sun 04:32:12 PM 45.1300 -76.0720 256° West 394 453 31,000 -1,835 Descending FlightAware ADS-B
Sun 04:32:57 PM 45.1100 -76.1790 255° West 411 473 30,000 -667 Descending FlightAware ADS-B
Sun 04:33:42 PM 45.0760 -76.2930 247° West 430 495 30,000  Level FlightAware ADS-B
Sun 04:34:22 PM 45.0370 -76.3930 241° Southwest 432 497 30,000 -825 Level FlightAware ADS-B
Sun 04:35:02 PM 45.0000 -76.4870 241° Southwest 428 493 28,900 -1,412 Descending FlightAware ADS-B
Sun 04:35:47 PM 44.9530 -76.6030 240° Southwest 443 510 28,000 -635 Descending FlightAware ADS-B
Sun 04:36:27 PM 44.9120 -76.7070 241° Southwest 440 506 28,000  Level FlightAware ADS-B
Sun 04:37:12 PM 44.8670 -76.8190 240° Southwest 438 504 28,000  Level FlightAware ADS-B
Sun 04:37:52 PM 44.8270 -76.9180 240° Southwest 438 504 28,000  Level FlightAware ADS-B
Sun 04:38:32 PM 44.7880 -77.0150 240° Southwest 436 502 28,000  Level FlightAware ADS-B
Sun 04:39:17 PM 44.7430 -77.1260 240° Southwest 436 502 28,000  Level FlightAware ADS-B
Sun 04:39:57 PM 44.7040 -77.2240 241° Southwest 434 499 28,000  Level FlightAware ADS-B
Sun 04:40:42 PM 44.6610 -77.3300 240° Southwest 434 499 28,000  Level FlightAware ADS-B
Sun 04:41:22 PM 44.6200 -77.4280 240° Southwest 435 501 28,000  Level FlightAware ADS-B
Sun 04:42:02 PM 44.5780 -77.5310 240° Southwest 434 499 28,000 -353 Level FlightAware ADS-B
Sun 04:42:47 PM 44.5370 -77.6310 240° Southwest 424 488 27,500 -1,650 Descending FlightAware ADS-B
Sun 04:43:22 PM 44.5010 -77.7180 240° Southwest 422 486 25,800 -1,875 Descending FlightAware ADS-B
Sun 04:44:07 PM 44.4550 -77.8290 240° Southwest 422 486 25,000 -533 Descending FlightAware ADS-B
Sun 04:44:52 PM 44.4120 -77.9330 240° Southwest 422 486 25,000  Level FlightAware ADS-B
Sun 04:45:32 PM 44.3720 -78.0290 240° Southwest 441 507 25,000  Level FlightAware ADS-B
Sun 04:46:12 PM 44.3330 -78.1220 240° Southwest 447 514 25,000  Level FlightAware ADS-B
Sun 04:46:57 PM 44.2820 -78.2430 240° Southwest 447 514 25,000  Level FlightAware ADS-B
Sun 04:47:37 PM 44.2400 -78.3410 239° Southwest 444 511 25,000 -150 Level FlightAware ADS-B
Sun 04:48:17 PM 44.1990 -78.4370 239° Southwest 421 484 24,800 -988 Descending FlightAware ADS-B
Sun 04:49:02 PM 44.1560 -78.5390 240° Southwest 406 467 23,600 -1,906 Descending FlightAware ADS-B
Sun 04:49:42 PM 44.1200 -78.6240 239° Southwest 397 457 22,100 -2,259 Descending FlightAware ADS-B
Sun 04:50:27 PM 44.0760 -78.7250 239° Southwest 388 447 20,400 -2,259 Descending FlightAware ADS-B
Sun 04:51:07 PM 44.0410 -78.8080 240° Southwest 378 435 18,900 -2,188 Descending FlightAware ADS-B
Sun 04:51:52 PM 43.9990 -78.9000 238° Southwest 368 423 17,300 -2,047 Descending FlightAware ADS-B
Sun 04:52:32 PM 43.9620 -78.9790 237° Southwest 357 411 16,000 -1,275 Descending FlightAware ADS-B
Sun 04:53:12 PM 43.9290 -79.0520 238° Southwest 324 373 15,600 -1,200 Descending FlightAware ADS-B
Sun 04:53:57 PM 43.8930 -79.1290 237° Southwest 318 366 14,300 -1,624 Descending FlightAware ADS-B
Sun 04:54:37 PM 43.8620 -79.1970 238° Southwest 309 356 13,300 -1,500 Descending FlightAware ADS-B
Sun 04:55:17 PM 43.8320 -79.2630 238° Southwest 303 349 12,300 -1,412 Descending FlightAware ADS-B
Sun 04:56:02 PM 43.7980 -79.3350 237° Southwest 285 328 11,300 -1,333 Descending FlightAware ADS-B
Sun 04:56:47 PM 43.7600 -79.3860 224° Southwest 247 284 10,300 -1,360 Descending FlightAware ADS-B
Sun 04:57:17 PM 43.7320 -79.4140 216° Southwest 240 276 9,600 -1,320 Descending FlightAware ADS-B
Sun 04:57:37 PM 43.7140 -79.4310 214° Southwest 237 273 9,200 -764 Descending FlightAware ADS-B
Sun 04:58:12 PM 43.6810 -79.4630 215° Southwest 244 281 8,900 -300 Descending FlightAware ADS-B
Sun 04:58:37 PM 43.6580 -79.4850 215° Southwest 243 280 8,900 -327 Level FlightAware ADS-B
Sun 04:59:07 PM 43.6310 -79.5120 216° Southwest 245 282 8,600 -700 Descending FlightAware ADS-B
Sun 04:59:37 PM 43.6050 -79.5370 215° Southwest 243 280 8,200 -960 Descending FlightAware ADS-B
Sun 04:59:57 PM 43.5860 -79.5600 221° Southwest 245 282 7,800 -1,350 Descending FlightAware ADS-B
Sun 05:00:17 PM 43.5710 -79.5810 225° Southwest 244 281 7,300 -1,600 Descending FlightAware ADS-B
Sun 05:00:42 PM 43.5510 -79.6110 227° Southwest 242 278 6,600 -1,855 Descending FlightAware ADS-B
Sun 05:01:12 PM 43.5280 -79.6440 226° Southwest 237 273 5,600 -1,900 Descending FlightAware ADS-B
Sun 05:01:42 PM 43.5060 -79.6760 227° Southwest 229 264 4,700 -1,636 Descending FlightAware ADS-B
Sun 05:02:07 PM 43.4960 -79.7090 247° West 239 275 4,100 -1,200 Descending FlightAware ADS-B
Sun 05:02:37 PM 43.5130 -79.7460 302° West 238 274 3,600 -1,200 Descending FlightAware ADS-B
Sun 05:02:52 PM 43.5290 -79.7530 342° North 230 265 3,200 -1,050 Descending FlightAware ADS-B
Sun 05:03:17 PM 43.5520 -79.7450 14° North 216 249 2,900 -450 Descending FlightAware ADS-B
Sun 05:03:32 PM 43.5680 -79.7400 13° North 219 252 2,900 -400 Level FlightAware ADS-B
Sun 05:03:47 PM 43.5820 -79.7320 22° Northeast 210 242 2,700 -1,067 Descending FlightAware ADS-B
Sun 05:04:17 PM 43.6020 -79.7050 44° Northeast 202 232 2,100 -1,091 Descending FlightAware ADS-B
Sun 05:04:42 PM 43.6150 -79.6850 48° Northeast 193 222 1,700 -982 Descending FlightAware ADS-B
Sun 05:05:12 PM 43.6340 -79.6560 48° Northeast 172 198 1,200 -873 Descending FlightAware ADS-B
Sun 05:05:37 PM 43.6450 -79.6410 45° Northeast 163 188 900 -857 Descending FlightAware ADS-B
Sun 05:05:47 PM 43.6510 -79.6330 44° Northeast 157 181 700 -343 Descending FlightAware ADS-B
Sun 05:06:12 PM 43.6630 -79.6160 46° Northeast 157 181 700  Level FlightAware ADS-B

Login

Don't have an account? Register now (free) for customized features, flight alerts, and more!